Time;durP1;ratioP1;P1;durP2;ratioP2;P2;SDS_P1;SDS_P2;PMS_P1;PMS_P2;Temp;Humidity;BMP_temperature;BMP_pressure;BME280_temperature;BME280_humidity;BME280_pressure;Samples;Min_cycle;Max_cycle;Signal;HPM_P1;HPM_P2
2021/10/20 00:04:11;;;;;;;0.10;0.10;;;;;;;15.17;99.56;100941.75;10333154;28;20038;-72
2021/10/20 00:09:12;;;;;;;0.10;0.10;;;;;;;15.11;100.00;100926.41;10332667;28;20056;-72
2021/10/20 00:14:12;;;;;;;0.10;0.10;;;;;;;15.05;100.00;100930.66;10333108;28;20485;-72
2021/10/20 00:19:13;;;;;;;0.10;0.10;;;;;;;15.05;100.00;100930.66;10329343;28;20030;-72
2021/10/20 00:24:13;;;;;;;0.00;0.00;;;;;;;15.07;99.81;100909.84;10332427;28;20057;-72
2021/10/20 00:29:13;;;;;;;0.10;0.10;;;;;;;15.08;99.76;100906.16;10331734;28;20026;-72
2021/10/20 00:34:14;;;;;;;0.10;0.10;;;;;;;15.11;99.63;100897.72;10330685;28;20018;-72
2021/10/20 00:39:14;;;;;;;0.10;0.10;;;;;;;15.12;99.36;100906.59;10330714;28;20033;-72
2021/10/20 00:44:14;;;;;;;0.10;0.10;;;;;;;15.11;99.38;100880.81;10330364;28;20026;-72
2021/10/20 00:49:15;;;;;;;0.00;0.00;;;;;;;15.10;99.19;100876.47;10331556;28;20038;-72
2021/10/20 00:54:15;;;;;;;0.10;0.10;;;;;;;15.10;98.85;100866.56;10330131;28;20026;-72
2021/10/20 00:59:16;;;;;;;0.10;0.10;;;;;;;15.09;98.51;100861.38;10330934;28;20030;-72
2021/10/20 01:04:16;;;;;;;0.10;0.10;;;;;;;15.12;98.33;100850.25;10331380;28;20662;-72
2021/10/20 01:09:17;;;;;;;0.10;0.10;;;;;;;15.12;98.28;100850.25;10326898;28;20033;-72
2021/10/20 01:14:18;;;;;;;0.00;0.00;;;;;;;15.07;97.96;100856.22;10327987;28;20500;-72
2021/10/20 01:19:19;;;;;;;0.10;0.10;;;;;;;15.03;97.87;100837.97;10329562;28;20449;-72
2021/10/20 01:24:20;;;;;;;0.10;0.10;;;;;;;14.96;97.51;100837.09;10329245;28;20394;-72
2021/10/20 01:29:21;;;;;;;0.10;0.10;;;;;;;14.88;97.93;100825.44;10329641;28;20023;-72
2021/10/20 01:34:22;;;;;;;0.10;0.10;;;;;;;14.79;98.03;100821.19;10327331;28;20428;-72
2021/10/20 01:39:22;;;;;;;0.10;0.10;;;;;;;14.74;98.01;100812.88;10328091;28;20692;-72
2021/10/20 01:44:23;;;;;;;0.03;0.03;;;;;;;14.63;98.41;100808.84;10329049;28;20023;-72
2021/10/20 01:49:24;;;;;;;0.00;0.00;;;;;;;14.55;98.39;100806.25;10326101;28;20061;-72
2021/10/20 01:54:24;;;;;;;0.10;0.10;;;;;;;14.50;98.48;100795.19;10328622;28;20266;-72
2021/10/20 01:59:24;;;;;;;0.10;0.10;;;;;;;14.46;98.66;100794.75;10328226;28;20488;-72
2021/10/20 02:04:25;;;;;;;0.10;0.10;;;;;;;14.44;98.58;100782.56;10327042;28;20026;-72
2021/10/20 02:09:25;;;;;;;0.10;0.10;;;;;;;14.37;98.35;100761.03;10327590;28;20297;-72
2021/10/20 02:14:25;;;;;;;0.10;0.10;;;;;;;14.34;98.63;100761.41;10327959;28;20022;-72
2021/10/20 02:19:27;;;;;;;0.00;0.00;;;;;;;14.27;98.44;100763.16;10327594;28;20216;-72
2021/10/20 02:24:27;;;;;;;0.10;0.10;;;;;;;14.20;98.78;100751.53;10327787;28;20045;-72
2021/10/20 02:29:30;;;;;;;0.10;0.10;;;;;;;14.21;98.58;100747.81;10327405;28;20052;-71
2021/10/20 02:34:31;;;;;;;0.10;0.10;;;;;;;14.19;98.78;100749.84;10325463;28;20041;-71
2021/10/20 02:39:31;;;;;;;0.00;0.00;;;;;;;14.18;98.60;100729.44;10327947;28;20022;-71
2021/10/20 02:44:32;;;;;;;0.10;0.10;;;;;;;14.15;99.12;100727.94;10326864;28;20569;-71
2021/10/20 02:49:32;;;;;;;0.00;0.00;;;;;;;14.11;98.82;100723.13;10327172;28;20732;-72
2021/10/20 02:54:32;;;;;;;0.10;0.10;;;;;;;14.09;98.49;100717.16;10324877;28;20018;-72
2021/10/20 02:59:32;;;;;;;0.10;0.10;;;;;;;14.14;98.64;100702.19;10325963;28;20026;-72
2021/10/20 03:04:33;;;;;;;0.00;0.00;;;;;;;14.19;98.27;100701.63;10326994;28;20509;-71
2021/10/20 03:09:33;;;;;;;0.07;0.07;;;;;;;14.26;97.50;100691.84;10326130;28;20026;-71
2021/10/20 03:14:33;;;;;;;0.00;0.00;;;;;;;14.29;96.98;100691.47;10327000;28;20440;-72
2021/10/20 03:19:34;;;;;;;0.10;0.10;;;;;;;14.27;96.76;100696.16;10324824;28;20051;-71
2021/10/20 03:24:34;;;;;;;0.10;0.10;;;;;;;14.18;96.52;100699.97;10327127;28;20029;-71
2021/10/20 03:29:35;;;;;;;0.10;0.10;;;;;;;14.13;96.62;100687.13;10326227;28;20069;-71
2021/10/20 03:34:35;;;;;;;0.10;0.10;;;;;;;14.06;96.27;100674.69;10324654;28;20026;-71
2021/10/20 03:39:35;;;;;;;0.10;0.10;;;;;;;14.04;96.31;100678.34;10326029;28;20026;-72
2021/10/20 03:44:35;;;;;;;0.10;0.10;;;;;;;14.00;95.69;100654.81;10321789;28;20034;-71
2021/10/20 03:49:36;;;;;;;0.10;0.10;;;;;;;13.95;95.81;100641.16;10324292;28;20069;-71
2021/10/20 03:54:36;;;;;;;0.10;0.10;;;;;;;13.86;95.54;100624.34;10325838;28;20022;-72
2021/10/20 03:59:37;;;;;;;0.10;0.10;;;;;;;13.82;95.53;100625.75;10298922;28;20022;-71
2021/10/20 04:04:37;;;;;;;0.10;0.10;;;;;;;13.78;95.74;100619.09;10324594;28;20037;-71
2021/10/20 04:09:37;;;;;;;0.10;0.10;;;;;;;13.71;95.55;100613.66;10325292;28;20088;-72
2021/10/20 04:14:38;;;;;;;0.10;0.10;;;;;;;13.68;94.99;100613.19;10331004;28;20792;-72
2021/10/20 04:19:38;;;;;;;0.10;0.10;;;;;;;13.63;95.41;100618.25;10329936;28;20075;-72
2021/10/20 04:24:38;;;;;;;0.10;0.10;;;;;;;13.61;95.22;100605.06;10332798;28;20121;-72
2021/10/20 04:29:39;;;;;;;0.00;0.00;;;;;;;13.55;95.19;100585.22;10331847;28;20022;-72
2021/10/20 04:34:39;;;;;;;0.10;0.10;;;;;;;13.52;94.70;100584.75;10332471;28;20493;-72
2021/10/20 04:39:39;;;;;;;0.10;0.10;;;;;;;13.47;94.50;100593.34;10327513;28;20323;-72
2021/10/20 04:44:39;;;;;;;0.10;0.10;;;;;;;13.42;94.91;100589.56;10332089;28;20057;-72
2021/10/20 04:49:40;;;;;;;0.10;0.10;;;;;;;13.36;94.74;100580.44;10329016;28;20037;-71
2021/10/20 04:54:41;;;;;;;0.10;0.10;;;;;;;13.36;94.90;100565.19;10328578;28;20045;-71
2021/10/20 04:59:41;;;;;;;0.10;0.10;;;;;;;13.34;94.44;100553.84;10331556;28;20261;-71
2021/10/20 05:04:41;;;;;;;0.10;0.10;;;;;;;13.31;94.85;100566.75;10329576;28;20018;-72
2021/10/20 05:09:42;;;;;;;0.10;0.10;;;;;;;13.28;94.48;100551.91;10331677;28;20026;-72
2021/10/20 05:14:42;;;;;;;0.03;0.03;;;;;;;13.29;94.06;100550.06;10327914;28;20284;-72
2021/10/20 05:19:42;;;;;;;0.10;0.10;;;;;;;13.28;94.01;100529.69;10325064;28;20038;-72
2021/10/20 05:24:42;;;;;;;0.10;0.10;;;;;;;13.26;94.34;100526.34;10327917;28;20027;-72
2021/10/20 05:29:43;;;;;;;0.08;0.08;;;;;;;13.26;94.08;100521.81;10330187;28;20026;-72
2021/10/20 05:34:43;;;;;;;0.10;0.10;;;;;;;13.27;93.46;100520.00;10330192;28;20033;-72
2021/10/20 05:39:44;;;;;;;0.10;0.10;;;;;;;13.25;93.49;100512.16;10329937;28;20048;-71
2021/10/20 05:44:44;;;;;;;0.10;0.10;;;;;;;13.24;94.06;100489.06;10329479;28;20545;-72
2021/10/20 05:49:45;;;;;;;0.10;0.10;;;;;;;13.23;93.47;100474.03;10326523;28;20022;-71
2021/10/20 05:54:45;;;;;;;0.10;0.10;;;;;;;13.27;93.30;100477.22;10328699;28;20164;-72
2021/10/20 05:59:45;;;;;;;0.10;0.10;;;;;;;13.28;93.36;100470.84;10328719;28;20767;-71
2021/10/20 06:04:46;;;;;;;0.00;0.00;;;;;;;13.27;93.68;100471.88;10329065;28;20027;-71
2021/10/20 06:09:46;;;;;;;0.00;0.00;;;;;;;13.26;93.25;100464.84;10326343;28;20385;-71
2021/10/20 06:14:46;;;;;;;0.10;0.10;;;;;;;13.28;93.38;100458.28;10329159;28;20023;-71
2021/10/20 06:19:48;;;;;;;0.10;0.10;;;;;;;13.32;92.95;100458.75;10327538;28;20481;-71
2021/10/20 06:24:49;;;;;;;0.00;0.00;;;;;;;13.34;92.41;100448.69;10326401;28;20022;-71
2021/10/20 06:29:49;;;;;;;0.10;0.10;;;;;;;13.39;91.97;100440.94;10327720;28;20072;-71
2021/10/20 06:34:49;;;;;;;0.10;0.10;;;;;;;13.45;91.96;100423.31;10326835;28;20046;-71
2021/10/20 06:39:50;;;;;;;0.10;0.10;;;;;;;13.48;91.03;100417.59;10324486;28;20026;-71
2021/10/20 06:44:50;;;;;;;0.10;0.10;;;;;;;13.48;90.58;100415.75;10327156;28;20436;-71
2021/10/20 06:49:51;;;;;;;0.10;0.10;;;;;;;13.56;90.52;100412.94;10323066;28;20265;-71
2021/10/20 06:54:52;;;;;;;0.10;0.10;;;;;;;13.65;90.79;100402.97;10327200;28;20026;-71
2021/10/20 06:59:52;;;;;;;0.10;0.10;;;;;;;13.73;89.91;100402.84;10326808;28;20478;-71
2021/10/20 07:04:52;;;;;;;0.10;0.10;;;;;;;13.77;90.03;100406.78;10325170;28;20359;-71
2021/10/20 07:09:52;;;;;;;0.10;0.10;;;;;;;13.82;88.97;100377.59;10341668;22;20043;-73
2021/10/20 07:14:53;;;;;;;0.10;0.10;;;;;;;13.90;89.16;100395.38;10310545;28;20426;-73
2021/10/20 07:19:53;;;;;;;0.00;0.00;;;;;;;13.99;88.81;100390.72;10278062;28;20506;-73
2021/10/20 07:24:54;;;;;;;0.10;0.10;;;;;;;14.06;88.33;100377.41;10259810;28;20030;-74
2021/10/20 07:29:54;;;;;;;0.10;0.10;;;;;;;14.15;88.17;100377.06;10266051;28;20029;-73
2021/10/20 07:34:54;;;;;;;0.10;0.10;;;;;;;14.27;87.39;100369.34;10277425;28;20019;-73
2021/10/20 07:39:55;;;;;;;0.10;0.10;;;;;;;14.37;86.57;100352.91;10271317;28;20031;-73
2021/10/20 07:44:55;;;;;;;0.00;0.00;;;;;;;14.44;86.09;100354.63;10268602;28;20031;-74
2021/10/20 07:49:55;;;;;;;0.10;0.10;;;;;;;14.56;86.89;100338.03;10285117;28;20067;-74
2021/10/20 07:54:56;;;;;;;0.10;0.10;;;;;;;14.63;85.77;100330.84;10279407;28;20023;-73
2021/10/20 07:59:57;;;;;;;0.10;0.10;;;;;;;14.66;85.01;100309.00;10294981;28;20111;-74
2021/10/20 08:04:57;;;;;;;0.10;0.10;;;;;;;14.73;83.94;100307.19;10293401;28;20030;-73
2021/10/20 08:09:57;;;;;;;0.00;0.00;;;;;;;14.81;84.72;100290.13;10293831;28;20278;-74
2021/10/20 08:14:58;;;;;;;0.00;0.00;;;;;;;14.89;84.23;100289.94;10263820;28;20039;-73
2021/10/20 08:19:59;;;;;;;0.00;0.00;;;;;;;15.00;83.64;100275.94;10253776;28;20479;-73
2021/10/20 08:24:59;;;;;;;0.10;0.10;;;;;;;15.14;83.41;100264.22;10253915;28;20027;-73
2021/10/20 08:29:59;;;;;;;0.00;0.00;;;;;;;15.30;83.11;100265.72;10253804;28;20471;-74
2021/10/20 08:34:59;;;;;;;0.10;0.10;;;;;;;15.89;80.51;100261.44;10253714;28;20030;-73
2021/10/20 08:40:00;;;;;;;0.10;0.10;;;;;;;16.20;79.54;100223.19;10274118;28;20102;-73
2021/10/20 08:45:00;;;;;;;0.10;0.10;;;;;;;16.01;79.77;100214.09;10293269;28;20429;-73
2021/10/20 08:50:06;;;;;;;0.00;0.00;;;;;;;15.98;79.97;100232.50;10291732;28;20425;-73
2021/10/20 08:55:08;;;;;;;0.10;0.10;;;;;;;16.16;79.21;100202.28;10292087;28;20182;-73
2021/10/20 09:00:09;;;;;;;0.10;0.10;;;;;;;16.36;78.73;100203.06;10252208;28;20027;-73
2021/10/20 09:05:12;;;;;;;0.10;0.10;;;;;;;16.43;79.16;100203.84;10252323;28;20030;-73
2021/10/20 09:10:13;;;;;;;0.00;0.00;;;;;;;16.38;78.74;100219.00;10252215;29;20023;-73
2021/10/20 09:15:20;;;;;;;0.10;0.10;;;;;;;16.27;79.03;100199.78;10250951;28;20470;-73
2021/10/20 09:20:23;;;;;;;0.10;0.10;;;;;;;16.18;79.93;100203.75;10259753;28;20513;-73
2021/10/20 09:25:25;;;;;;;0.00;0.00;;;;;;;16.07;79.89;100177.53;10286045;28;20062;-73
2021/10/20 09:30:28;;;;;;;0.00;0.00;;;;;;;15.96;80.37;100188.91;10255483;28;20571;-73
2021/10/20 09:35:30;;;;;;;0.00;0.00;;;;;;;15.82;80.85;100177.34;10254777;28;20378;-73
2021/10/20 09:40:44;;;;;;;0.10;0.10;;;;;;;15.76;80.30;100168.28;10252097;28;20073;-73
2021/10/20 09:45:47;;;;;;;0.10;0.10;;;;;;;15.78;81.37;100146.59;10284774;28;20284;-73
2021/10/20 09:51:05;;;;;;;0.00;0.00;;;;;;;15.91;80.69;100135.84;10280635;28;20023;-73
2021/10/20 09:56:27;;;;;;;0.10;0.10;;;;;;;16.11;80.68;100129.56;10275756;28;20022;-73
2021/10/20 10:01:28;;;;;;;0.10;0.10;;;;;;;16.23;80.64;100117.97;10250815;28;20046;-73
2021/10/20 10:06:29;;;;;;;0.10;0.10;;;;;;;16.24;79.92;100114.22;10261212;28;20029;-73
2021/10/20 10:11:29;;;;;;;0.10;0.10;;;;;;;16.17;80.21;100105.34;10248107;28;20451;-72
2021/10/20 10:16:32;;;;;;;0.10;0.10;;;;;;;16.06;81.70;100101.47;10265334;28;20084;-72
2021/10/20 10:21:37;;;;;;;0.10;0.10;;;;;;;15.95;82.50;100112.06;10276795;28;20124;-72
2021/10/20 10:27:02;;;;;;;0.10;0.10;;;;;;;15.90;83.85;100111.88;10288661;28;20023;-72
2021/10/20 10:32:07;;;;;;;0.10;0.10;;;;;;;15.75;85.28;100096.81;10282838;28;20055;-73
2021/10/20 10:37:07;;;;;;;0.10;0.10;;;;;;;15.60;85.71;100091.66;10288162;28;20105;-73
2021/10/20 10:42:07;;;;;;;0.10;0.10;;;;;;;15.51;86.30;100051.84;10287976;28;20564;-73
2021/10/20 10:47:19;;;;;;;0.00;0.00;;;;;;;15.61;85.83;100063.78;10287555;28;20036;-73
2021/10/20 10:52:32;;;;;;;0.10;0.10;;;;;;;15.74;85.91;100079.09;10282756;28;20033;-72
2021/10/20 10:57:35;;;;;;;0.10;0.10;;;;;;;15.81;85.13;100079.06;10284286;28;20037;-72
2021/10/20 11:02:36;;;;;;;0.00;0.00;;;;;;;15.92;85.89;100077.56;10284591;28;20023;-73
2021/10/20 11:07:36;;;;;;;0.10;0.10;;;;;;;16.03;85.24;100066.16;10269594;28;20031;-72
2021/10/20 11:12:38;;;;;;;0.10;0.10;;;;;;;16.15;84.31;100063.63;10269138;28;20106;-72
2021/10/20 11:17:39;;;;;;;0.10;0.10;;;;;;;16.01;85.39;100057.50;10254780;28;20164;-72
2021/10/20 11:22:39;;;;;;;0.10;0.10;;;;;;;15.90;85.82;100056.28;10269954;28;20630;-73
2021/10/20 11:27:45;;;;;;;0.10;0.10;;;;;;;15.78;85.77;100058.00;10276740;28;20180;-72
2021/10/20 11:32:46;;;;;;;0.00;0.00;;;;;;;15.68;86.13;100066.50;10268953;28;20052;-72
2021/10/20 11:37:54;;;;;;;0.00;0.00;;;;;;;15.67;85.67;100061.31;10249310;28;20183;-72
2021/10/20 11:42:55;;;;;;;0.00;0.00;;;;;;;15.73;85.63;100058.63;10261283;28;20036;-72
2021/10/20 11:48:01;;;;;;;0.00;0.00;;;;;;;15.83;85.45;100056.31;10253696;28;20019;-72
2021/10/20 11:53:07;;;;;;;0.10;0.10;;;;;;;16.04;85.21;100049.00;10278903;28;20269;-72
2021/10/20 11:58:25;;;;;;;0.10;0.10;;;;;;;16.24;85.13;100057.78;10294019;28;20027;-72
2021/10/20 12:03:40;;;;;;;0.00;0.00;;;;;;;16.37;83.80;100042.63;10283741;28;20073;-72
2021/10/20 12:08:45;;;;;;;0.10;0.10;;;;;;;16.43;83.25;100045.25;10282364;28;20023;-72
2021/10/20 12:13:47;;;;;;;0.10;0.10;;;;;;;16.46;83.38;100030.56;10282109;28;20050;-72
2021/10/20 12:18:48;;;;;;;0.10;0.10;;;;;;;16.43;83.73;100013.00;10282085;28;20374;-72
2021/10/20 12:23:48;;;;;;;0.00;0.00;;;;;;;16.44;84.42;100012.00;10280890;28;20393;-72
2021/10/20 12:28:49;;;;;;;0.10;0.10;;;;;;;16.53;84.53;99988.34;10276696;28;20110;-72
2021/10/20 12:33:51;;;;;;;0.10;0.10;;;;;;;16.67;84.72;99989.09;10259511;28;20498;-72
2021/10/20 12:38:52;;;;;;;0.10;0.10;;;;;;;16.71;84.73;99985.72;10274685;28;20024;-72
2021/10/20 12:43:55;;;;;;;0.00;0.00;;;;;;;16.64;84.63;99976.91;10289121;28;20019;-72
2021/10/20 12:48:56;;;;;;;0.00;0.00;;;;;;;16.55;85.52;99970.16;10291242;28;20031;-72
2021/10/20 12:54:03;;;;;;;0.10;0.10;;;;;;;16.53;85.94;99951.53;10274472;28;20022;-72
2021/10/20 12:59:20;;;;;;;0.10;0.10;;;;;;;16.62;85.92;99930.56;10269618;28;20402;-72
2021/10/20 13:04:20;;;;;;;0.10;0.10;;;;;;;16.58;86.07;99924.00;10272364;28;20030;-71
2021/10/20 13:09:20;;;;;;;0.05;0.05;;;;;;;16.46;86.13;99941.88;10276854;22;20047;-73
2021/10/20 13:14:21;;;;;;;0.10;0.10;;;;;;;16.17;89.19;99946.84;10260283;28;20098;-73
2021/10/20 13:19:21;;;;;;;0.00;0.00;;;;;;;15.83;91.93;99942.72;10253252;28;20285;-70
2021/10/20 13:24:22;;;;;;;0.00;0.00;;;;;;;15.59;92.63;99931.66;10256675;28;20034;-70
2021/10/20 13:29:22;;;;;;;0.00;0.00;;;;;;;15.49;93.08;99928.59;10269625;28;20027;-70
2021/10/20 13:34:23;;;;;;;0.10;0.10;;;;;;;15.41;94.28;99918.09;10289508;28;20025;-71
2021/10/20 13:39:23;;;;;;;0.10;0.10;;;;;;;15.35;94.64;99921.63;10281132;28;20042;-71
2021/10/20 13:44:24;;;;;;;0.00;0.00;;;;;;;15.30;94.37;99908.03;10250748;28;20367;-71
2021/10/20 13:49:24;;;;;;;0.10;0.10;;;;;;;15.33;94.66;99926.38;10273749;28;20038;-71
2021/10/20 13:54:29;;;;;;;0.10;0.10;;;;;;;15.35;93.89;99927.00;10269143;28;20363;-71
2021/10/20 13:59:29;;;;;;;0.10;0.10;;;;;;;15.40;93.40;99911.91;10251252;28;20034;-72
2021/10/20 14:04:29;;;;;;;0.10;0.10;;;;;;;15.47;93.48;99911.06;10249432;28;20106;-72
2021/10/20 14:09:30;;;;;;;0.10;0.10;;;;;;;15.52;92.73;99905.88;10274820;28;20275;-72
2021/10/20 14:14:30;;;;;;;0.10;0.10;;;;;;;15.61;92.41;99918.00;10250551;28;20023;-72
2021/10/20 14:19:30;;;;;;;0.00;0.00;;;;;;;15.68;91.61;99902.75;10261186;28;20041;-72
2021/10/20 14:24:31;;;;;;;0.10;0.10;;;;;;;15.70;91.63;99903.34;10262195;28;20034;-72
2021/10/20 14:29:34;;;;;;;0.10;0.10;;;;;;;15.72;90.70;99900.44;10277869;28;20015;-72
2021/10/20 14:34:34;;;;;;;0.10;0.10;;;;;;;15.82;89.48;99877.47;10267899;28;20102;-72
2021/10/20 14:39:35;;;;;;;0.10;0.10;;;;;;;15.94;88.63;99882.13;10264236;28;20091;-72
2021/10/20 14:44:35;;;;;;;0.10;0.10;;;;;;;16.02;88.93;99887.22;10255542;28;20023;-72
2021/10/20 14:49:53;;;;;;;0.07;0.07;;;;;;;16.09;87.86;99896.06;10263640;28;20296;-72
2021/10/20 14:54:55;;;;;;;0.10;0.10;;;;;;;16.15;86.95;99868.34;10281369;28;20026;-72
2021/10/20 14:59:55;;;;;;;0.10;0.10;;;;;;;16.18;86.30;99884.03;10276914;28;20027;-72
2021/10/20 15:04:56;;;;;;;0.10;0.10;;;;;;;16.21;85.75;99848.66;10267793;28;20393;-72
2021/10/20 15:09:56;;;;;;;0.10;0.10;;;;;;;16.23;85.75;99832.28;10274668;28;20046;-72
2021/10/20 15:14:57;;;;;;;0.10;0.10;;;;;;;16.24;84.81;99833.97;10262020;28;20023;-72
2021/10/20 15:19:58;;;;;;;0.00;0.00;;;;;;;16.18;85.50;99837.53;10275469;28;20030;-72
2021/10/20 15:24:58;;;;;;;0.00;0.00;;;;;;;16.09;85.56;99846.91;10273158;28;20511;-72
2021/10/20 15:29:59;;;;;;;0.10;0.10;;;;;;;16.02;86.22;99825.44;10245628;28;20058;-72
2021/10/20 15:35:00;;;;;;;0.00;0.00;;;;;;;15.96;86.75;99839.75;10262363;28;20031;-72
2021/10/20 15:40:01;;;;;;;0.00;0.00;;;;;;;15.93;87.10;99834.81;10253984;28;20026;-72
2021/10/20 15:45:03;;;;;;;0.10;0.10;;;;;;;15.87;87.10;99838.38;10252600;28;20027;-72
2021/10/20 15:50:05;;;;;;;0.10;0.10;;;;;;;15.82;87.12;99823.75;10248335;28;20041;-72
2021/10/20 15:55:05;;;;;;;0.10;0.10;;;;;;;15.84;86.66;99821.66;10245674;28;20054;-72
2021/10/20 16:00:07;;;;;;;0.00;0.00;;;;;;;15.82;86.76;99806.81;10245492;28;20035;-72
2021/10/20 16:05:08;;;;;;;0.00;0.00;;;;;;;15.80;86.64;99812.41;10244377;28;20952;-72
2021/10/20 16:10:08;;;;;;;0.10;0.10;;;;;;;15.76;87.27;99805.81;10244679;28;20027;-72
2021/10/20 16:15:12;;;;;;;0.10;0.10;;;;;;;15.74;87.68;99818.66;10239659;28;20018;-72
2021/10/20 16:20:12;;;;;;;0.00;0.00;;;;;;;15.65;88.07;99808.34;10246314;28;20114;-73
2021/10/20 16:25:16;;;;;;;0.00;0.00;;;;;;;15.61;88.74;99805.28;10244396;28;20027;-73
2021/10/20 16:30:16;;;;;;;0.10;0.10;;;;;;;15.52;89.03;99809.25;10235330;28;20038;-72
2021/10/20 16:35:17;;;;;;;0.10;0.10;;;;;;;15.45;89.02;99805.81;10244148;28;20443;-72
2021/10/20 16:40:17;;;;;;;0.10;0.10;;;;;;;15.45;89.16;99800.44;10236335;28;20279;-72
2021/10/20 16:45:19;;;;;;;0.10;0.10;;;;;;;15.44;89.42;99794.22;10228063;28;20023;-72
2021/10/20 16:50:20;;;;;;;0.10;0.10;;;;;;;15.35;90.23;99790.97;10231107;28;20027;-72
2021/10/20 16:55:21;;;;;;;0.00;0.00;;;;;;;15.33;90.02;99787.72;10254250;28;20024;-72
2021/10/20 17:00:21;;;;;;;0.10;0.10;;;;;;;15.39;89.04;99786.03;10255256;28;20418;-72
2021/10/20 17:05:22;;;;;;;0.10;0.10;;;;;;;15.39;88.81;99786.03;10258892;28;20015;-72
2021/10/20 17:10:23;;;;;;;0.10;0.10;;;;;;;15.36;89.33;99775.72;10254936;28;20549;-72
2021/10/20 17:15:24;;;;;;;0.10;0.10;;;;;;;15.35;89.05;99776.75;10262166;28;20027;-73
2021/10/20 17:20:27;;;;;;;0.10;0.10;;;;;;;15.35;89.55;99772.19;10251958;28;20109;-71
2021/10/20 17:25:27;;;;;;;0.10;0.10;;;;;;;15.25;89.99;99765.69;10248837;28;20029;-72
2021/10/20 17:30:27;;;;;;;0.10;0.10;;;;;;;15.20;90.80;99801.19;10246844;28;20497;-72
2021/10/20 17:35:28;;;;;;;0.10;0.10;;;;;;;15.15;90.87;99774.19;10254531;28;20363;-72
2021/10/20 17:40:28;;;;;;;0.10;0.10;;;;;;;15.10;89.95;99774.03;10273254;28;20029;-71
2021/10/20 17:45:28;;;;;;;0.10;0.10;;;;;;;15.14;89.55;99759.13;10261258;28;20778;-72
2021/10/20 17:50:29;;;;;;;0.10;0.10;;;;;;;15.10;90.68;99769.47;10271390;28;20046;-71
2021/10/20 17:55:29;;;;;;;0.10;0.10;;;;;;;15.03;90.43;99765.16;10273037;28;20362;-72
2021/10/20 18:00:30;;;;;;;0.00;0.00;;;;;;;14.95;90.78;99758.19;10273224;28;20027;-72
2021/10/20 18:05:30;;;;;;;0.00;0.00;;;;;;;14.99;90.48;99745.19;10261521;28;20736;-72
2021/10/20 18:10:32;;;;;;;0.10;0.10;;;;;;;15.05;89.34;99744.34;10269166;28;20042;-72
2021/10/20 18:15:33;;;;;;;0.10;0.10;;;;;;;14.98;91.20;99711.34;10264298;28;20014;-71
2021/10/20 18:20:35;;;;;;;0.10;0.10;;;;;;;14.84;91.52;99719.47;10272136;28;20023;-72
2021/10/20 18:25:35;;;;;;;0.10;0.10;;;;;;;14.80;91.22;99712.06;10266362;28;20414;-72
2021/10/20 18:30:36;;;;;;;0.10;0.10;;;;;;;14.81;90.69;99709.19;10261519;28;20025;-72
2021/10/20 18:35:36;;;;;;;0.10;0.10;;;;;;;14.78;91.27;99706.94;10260748;28;20273;-72
2021/10/20 18:40:38;;;;;;;0.00;0.00;;;;;;;14.72;91.12;99699.75;10263906;28;20023;-72
2021/10/20 18:45:38;;;;;;;0.10;0.10;;;;;;;14.71;91.29;99696.22;10269153;28;20038;-72
2021/10/20 18:50:39;;;;;;;0.10;0.10;;;;;;;14.73;90.81;99706.75;10262841;28;20030;-72
2021/10/20 18:55:43;;;;;;;0.10;0.10;;;;;;;14.75;91.21;99698.47;10262194;28;20034;-73
2021/10/20 19:00:43;;;;;;;;;;;;;;;14.73;90.92;99684.50;10267236;28;20031;-72
2021/10/20 19:05:43;;;;;;;0.10;0.10;;;;;;;14.72;91.25;99662.22;10261399;28;19914;-72
2021/10/20 19:10:44;;;;;;;0.00;0.00;;;;;;;14.71;90.83;99679.31;10259595;28;20027;-72
2021/10/20 19:15:48;;;;;;;0.10;0.10;;;;;;;14.65;91.21;99656.88;10263671;28;20110;-72
2021/10/20 19:20:48;;;;;;;0.10;0.10;;;;;;;14.59;91.75;99614.06;10267677;28;20081;-72
2021/10/20 19:25:49;;;;;;;0.10;0.10;;;;;;;14.52;90.98;99648.13;10260828;28;20093;-73
2021/10/20 19:30:50;;;;;;;0.10;0.10;;;;;;;14.36;92.29;99628.75;10245954;28;20058;-73
2021/10/20 19:35:51;;;;;;;0.10;0.10;;;;;;;14.16;93.42;99620.81;10246357;28;20128;-73
2021/10/20 19:40:51;;;;;;;0.00;0.00;;;;;;;13.97;92.80;99632.41;10259720;28;20122;-70
2021/10/20 19:45:52;;;;;;;0.10;0.10;;;;;;;13.79;92.25;99647.28;10281182;28;20027;-74
2021/10/20 19:50:52;;;;;;;0.10;0.10;;;;;;;13.62;91.32;99643.41;10267613;28;20022;-72
2021/10/20 19:55:52;;;;;;;0.00;0.00;;;;;;;13.47;91.34;99637.44;10284019;28;20102;-73
2021/10/20 20:00:53;;;;;;;0.00;0.00;;;;;;;13.36;93.23;99654.94;10259569;28;20034;-73
2021/10/20 20:05:54;;;;;;;0.10;0.10;;;;;;;13.29;94.37;99654.09;10319432;28;20037;-73
2021/10/20 20:10:54;;;;;;;0.00;0.00;;;;;;;13.21;96.20;99648.94;10333583;28;20037;-73
2021/10/20 20:15:54;;;;;;;0.10;0.10;;;;;;;13.16;96.74;99651.41;10328156;28;20014;-72
2021/10/20 20:20:54;;;;;;;0.10;0.10;;;;;;;13.14;96.88;99635.53;10294183;28;20019;-72
2021/10/20 20:25:55;;;;;;;0.10;0.10;;;;;;;13.17;96.47;99632.47;10268543;28;20283;-71
2021/10/20 20:30:59;;;;;;;0.10;0.10;;;;;;;13.13;96.63;99633.91;10271482;28;20627;-71
2021/10/20 20:35:59;;;;;;;0.10;0.10;;;;;;;13.17;96.19;99640.47;10278992;28;20023;-71
2021/10/20 20:41:00;;;;;;;0.00;0.00;;;;;;;13.23;95.96;99634.31;10272763;28;20035;-71
2021/10/20 20:46:03;;;;;;;0.10;0.10;;;;;;;13.31;94.83;99654.72;10273418;28;20286;-71
2021/10/20 20:51:03;;;;;;;0.10;0.10;;;;;;;13.36;94.45;99647.72;10273089;28;20233;-71
2021/10/20 20:56:04;;;;;;;0.00;0.00;;;;;;;13.42;93.51;99623.88;10276907;28;20011;-71
2021/10/20 21:01:04;;;;;;;0.10;0.10;;;;;;;13.43;93.11;99631.66;10273859;28;20441;-71
2021/10/20 21:06:06;;;;;;;0.10;0.10;;;;;;;13.38;93.12;99627.97;10274482;28;20102;-71
2021/10/20 21:11:07;;;;;;;0.10;0.10;;;;;;;13.35;92.93;99622.03;10264360;28;20363;-71
2021/10/20 21:16:07;;;;;;;0.10;0.10;;;;;;;13.31;92.26;99622.63;10258744;28;20023;-71
2021/10/20 21:21:10;;;;;;;0.00;0.00;;;;;;;13.24;92.60;99624.47;10269473;28;20497;-71
2021/10/20 21:26:11;;;;;;;0.10;0.10;;;;;;;13.12;92.12;99606.34;10272962;28;20028;-71
2021/10/20 21:31:12;;;;;;;0.10;0.10;;;;;;;13.05;92.27;99607.38;10266327;28;20029;-71
2021/10/20 21:36:12;;;;;;;0.10;0.10;;;;;;;12.93;92.08;99587.63;10269412;28;20029;-71
2021/10/20 21:41:13;;;;;;;0.03;0.03;;;;;;;12.86;91.97;99588.44;10275131;28;20041;-71
2021/10/20 21:46:13;;;;;;;0.10;0.10;;;;;;;12.77;92.02;99586.16;10268347;28;20340;-70
2021/10/20 21:51:14;;;;;;;0.10;0.10;;;;;;;12.73;92.00;99579.59;10268933;28;20457;-71
2021/10/20 21:56:14;;;;;;;0.10;0.10;;;;;;;12.71;91.94;99578.97;10261846;28;20259;-71
2021/10/20 22:01:14;;;;;;;0.10;0.10;;;;;;;12.64;92.15;99578.97;10278365;28;20026;-71
2021/10/20 22:06:15;;;;;;;0.10;0.10;;;;;;;12.60;92.56;99583.91;10278048;28;20026;-71
2021/10/20 22:11:15;;;;;;;0.10;0.10;;;;;;;12.57;92.54;99562.94;10260977;28;20034;-71
2021/10/20 22:16:15;;;;;;;0.10;0.10;;;;;;;12.52;92.60;99552.03;10275771;28;20095;-71
2021/10/20 22:21:17;;;;;;;0.10;0.10;;;;;;;12.44;93.08;99550.34;10281537;28;20077;-71
2021/10/20 22:26:18;;;;;;;0.10;0.10;;;;;;;12.35;93.33;99542.75;10270220;28;20414;-71
2021/10/20 22:31:18;;;;;;;0.10;0.10;;;;;;;12.23;93.45;99524.63;10260966;28;20031;-70
2021/10/20 22:36:19;;;;;;;0.10;0.10;;;;;;;12.17;93.46;99519.28;10265049;28;20011;-71
2021/10/20 22:41:19;;;;;;;0.08;0.08;;;;;;;12.09;94.00;99511.47;10264613;28;20019;-71
2021/10/20 22:46:20;;;;;;;0.10;0.10;;;;;;;12.01;94.39;99507.13;10259136;28;20023;-72
2021/10/20 22:51:21;;;;;;;0.10;0.10;;;;;;;11.89;95.15;99501.53;10258963;28;20410;-71
2021/10/20 22:56:22;;;;;;;0.10;0.10;;;;;;;11.82;95.70;99483.84;10270935;28;20015;-71
2021/10/20 23:01:22;;;;;;;0.10;0.10;;;;;;;11.73;96.17;99473.34;10270180;28;20026;-71
2021/10/20 23:06:24;;;;;;;0.10;0.10;;;;;;;11.66;96.82;99475.16;10260834;28;20027;-71
2021/10/20 23:11:24;;;;;;;0.00;0.00;;;;;;;11.58;97.63;99451.34;10260496;28;20057;-71
2021/10/20 23:16:25;;;;;;;0.10;0.10;;;;;;;11.49;97.69;99431.19;10261813;28;20076;-71